createdAt,value
2018-09-30T00:00:00.527Z,58.85
2018-09-30T00:02:29.689Z,58.77
2018-09-30T00:04:58.878Z,59.02
2018-09-30T00:07:28.048Z,59.13
2018-09-30T00:09:57.215Z,58.85
2018-09-30T00:12:26.347Z,58.75
2018-09-30T00:14:55.513Z,59.02
2018-09-30T00:17:24.717Z,59.47
2018-09-30T00:19:53.911Z,59.59
2018-09-30T00:22:23.077Z,59.81
2018-09-30T00:24:57.653Z,59.79
2018-09-30T00:27:26.800Z,59.38
2018-09-30T00:29:55.936Z,59.38
2018-09-30T00:32:25.095Z,60.12
2018-09-30T00:34:54.253Z,59.88
2018-09-30T00:37:23.456Z,59.87
2018-09-30T00:39:52.667Z,60.62
2018-09-30T00:42:21.835Z,60.52
2018-09-30T00:44:50.992Z,61.01
2018-09-30T00:47:20.185Z,60.64
2018-09-30T00:49:49.319Z,60.66
2018-09-30T00:52:18.495Z,61.02
2018-09-30T00:54:47.636Z,60.99
2018-09-30T00:57:16.839Z,61.19
2018-09-30T00:59:46.104Z,60.42
2018-09-30T01:02:15.285Z,60.40
2018-09-30T01:04:44.465Z,60.79
2018-09-30T01:07:13.598Z,60.55
2018-09-30T01:09:42.811Z,60.96
2018-09-30T01:12:11.996Z,60.54
2018-09-30T01:14:41.250Z,60.91
2018-09-30T01:17:10.416Z,60.71
2018-09-30T01:19:39.587Z,61.08
2018-09-30T01:22:08.815Z,61.02
2018-09-30T01:24:37.950Z,61.10
2018-09-30T01:27:07.163Z,60.57
2018-09-30T01:29:36.320Z,60.98
2018-09-30T01:32:05.564Z,60.80
2018-09-30T01:34:34.740Z,60.76
2018-09-30T01:37:03.925Z,60.68
2018-09-30T01:39:33.111Z,60.71
2018-09-30T01:42:02.290Z,60.91
2018-09-30T01:44:31.424Z,61.21
2018-09-30T01:47:00.592Z,61.38
2018-09-30T01:49:29.810Z,61.27
2018-09-30T01:52:16.300Z,61.38
2018-09-30T01:54:45.499Z,61.35
2018-09-30T01:57:14.710Z,61.56
2018-09-30T01:59:43.898Z,61.56
2018-09-30T02:02:13.064Z,60.87
2018-09-30T02:04:42.330Z,60.87
2018-09-30T02:07:11.477Z,61.92
2018-09-30T02:09:40.669Z,62.04
2018-09-30T02:12:09.880Z,62.20
2018-09-30T02:14:39.005Z,61.92
2018-09-30T02:17:08.158Z,61.49
2018-09-30T02:19:37.318Z,61.75
2018-09-30T02:22:06.490Z,61.62
2018-09-30T02:24:35.600Z,61.38
2018-09-30T02:27:04.747Z,61.50
2018-09-30T02:29:33.944Z,61.23
2018-09-30T02:32:03.103Z,61.57
2018-09-30T02:34:32.246Z,62.00
2018-09-30T02:37:01.406Z,61.66
2018-09-30T02:39:30.568Z,61.61
2018-09-30T02:41:59.760Z,61.76
2018-09-30T02:44:28.934Z,62.17
2018-09-30T02:46:58.101Z,61.67
2018-09-30T02:49:27.340Z,62.10
2018-09-30T02:51:56.545Z,62.45
2018-09-30T02:54:25.705Z,62.85
2018-09-30T02:56:54.963Z,62.53
2018-09-30T02:59:24.137Z,62.20
2018-09-30T03:01:53.298Z,62.10
2018-09-30T03:04:22.490Z,62.70
2018-09-30T03:06:57.030Z,62.45
2018-09-30T03:09:26.197Z,62.28
2018-09-30T03:11:55.330Z,62.76
2018-09-30T03:14:24.519Z,62.23
2018-09-30T03:16:53.642Z,62.55
2018-09-30T03:19:22.804Z,62.13
2018-09-30T03:21:56.580Z,62.20
2018-09-30T03:24:25.685Z,62.49
2018-09-30T03:26:54.782Z,62.60
2018-09-30T03:29:23.937Z,62.38
2018-09-30T03:31:53.058Z,62.51
2018-09-30T03:34:22.181Z,62.60
2018-09-30T03:36:51.269Z,62.96
2018-09-30T03:39:20.399Z,63.32
2018-09-30T03:41:49.487Z,63.02
2018-09-30T03:44:18.676Z,63.29
2018-09-30T03:46:47.774Z,63.05
2018-09-30T03:49:16.874Z,63.11
2018-09-30T03:51:46.021Z,63.11
2018-09-30T03:54:15.200Z,62.86
2018-09-30T03:56:44.404Z,63.38
2018-09-30T03:59:13.439Z,63.96
2018-09-30T04:01:42.567Z,64.32
2018-09-30T04:04:11.695Z,63.96
2018-09-30T04:06:40.810Z,63.95
2018-09-30T04:09:10.337Z,64.01
2018-09-30T04:11:39.579Z,63.94
2018-09-30T04:14:08.758Z,63.81
2018-09-30T04:16:37.922Z,64.39
2018-09-30T04:19:07.065Z,64.20
2018-09-30T04:21:36.178Z,64.60
2018-09-30T04:24:08.212Z,64.92
2018-09-30T04:26:38.394Z,64.82
2018-09-30T04:29:07.676Z,65.33
2018-09-30T04:31:36.836Z,64.79
2018-09-30T04:34:06.116Z,65.18
2018-09-30T04:36:36.115Z,65.73
2018-09-30T04:39:07.954Z,65.90
2018-09-30T04:41:37.070Z,65.81
2018-09-30T04:44:06.194Z,65.32
2018-09-30T04:46:35.327Z,65.35
2018-09-30T04:49:04.445Z,65.99
2018-09-30T04:51:33.592Z,66.17
2018-09-30T04:54:02.725Z,66.11
2018-09-30T04:56:31.829Z,66.00
2018-09-30T04:59:00.977Z,65.75
2018-09-30T05:01:30.124Z,66.38
2018-09-30T05:03:59.301Z,66.09
2018-09-30T05:06:28.468Z,65.92
2018-09-30T05:08:57.604Z,66.18
2018-09-30T05:11:26.799Z,65.77
2018-09-30T05:13:55.895Z,65.71
2018-09-30T05:16:25.059Z,65.95
2018-09-30T05:18:54.163Z,65.48
2018-09-30T05:21:23.289Z,65.79
2018-09-30T05:23:52.426Z,65.36
2018-09-30T05:26:21.548Z,65.32
2018-09-30T05:28:50.712Z,65.54
2018-09-30T05:31:20.017Z,65.33
2018-09-30T05:33:49.103Z,65.62
2018-09-30T05:36:18.275Z,65.62
2018-09-30T05:38:47.539Z,65.72
2018-09-30T05:41:16.715Z,65.17
2018-09-30T05:43:45.847Z,65.25
2018-09-30T05:46:15.003Z,64.71
2018-09-30T05:48:44.194Z,64.64
2018-09-30T05:51:13.348Z,64.82
2018-09-30T05:53:42.462Z,64.69
2018-09-30T05:56:11.597Z,64.54
2018-09-30T05:58:40.734Z,64.36
2018-09-30T06:01:09.834Z,64.08
2018-09-30T06:03:39.008Z,64.18
2018-09-30T06:06:08.101Z,63.54
2018-09-30T06:08:37.214Z,63.96
2018-09-30T06:11:06.389Z,63.64
2018-09-30T06:13:35.517Z,62.98
2018-09-30T06:16:04.702Z,62.96
2018-09-30T06:18:33.849Z,62.55
2018-09-30T06:21:02.979Z,62.48
2018-09-30T06:23:32.321Z,62.12
2018-09-30T06:26:01.515Z,62.09
2018-09-30T06:28:30.666Z,61.85
2018-09-30T06:30:59.764Z,62.16
2018-09-30T06:33:28.859Z,61.60
2018-09-30T06:35:57.982Z,61.81
2018-09-30T06:38:27.063Z,61.32
2018-09-30T06:40:56.207Z,61.74
2018-09-30T06:43:25.408Z,60.87
2018-09-30T06:45:54.508Z,60.35
2018-09-30T06:48:23.857Z,59.83
2018-09-30T06:50:52.979Z,59.54
2018-09-30T06:53:22.139Z,59.03
2018-09-30T06:55:51.246Z,58.70
2018-09-30T06:58:20.381Z,58.64
2018-09-30T07:00:49.561Z,57.95
2018-09-30T07:03:18.754Z,58.14
2018-09-30T07:05:48.920Z,57.33
2018-09-30T07:08:18.017Z,57.42
2018-09-30T07:10:47.208Z,57.07
2018-09-30T07:13:16.344Z,56.64
2018-09-30T07:15:45.445Z,56.21
2018-09-30T07:18:15.643Z,55.81
2018-09-30T07:20:44.829Z,55.21
2018-09-30T07:23:13.937Z,55.16
2018-09-30T07:25:43.038Z,54.34
2018-09-30T07:28:12.124Z,54.11
2018-09-30T07:30:41.227Z,53.83
2018-09-30T07:33:10.326Z,53.35
2018-09-30T07:35:39.417Z,52.41
2018-09-30T07:38:08.497Z,52.99
2018-09-30T07:40:38.489Z,52.58
2018-09-30T07:43:07.627Z,52.58
2018-09-30T07:45:36.859Z,51.78
2018-09-30T07:48:05.959Z,51.48
2018-09-30T07:50:35.108Z,50.94
2018-09-30T07:53:04.193Z,50.05
2018-09-30T07:55:33.318Z,49.55
2018-09-30T07:58:02.428Z,48.93
2018-09-30T08:00:31.554Z,48.37
2018-09-30T08:03:00.689Z,48.14
2018-09-30T08:05:29.802Z,47.74
2018-09-30T08:07:58.886Z,47.57
2018-09-30T08:10:27.989Z,47.63
2018-09-30T08:12:57.053Z,47.22
2018-09-30T08:15:26.187Z,46.51
2018-09-30T08:17:55.274Z,45.20
2018-09-30T08:20:24.376Z,45.18
2018-09-30T08:22:53.598Z,45.03
2018-09-30T08:25:22.763Z,44.39
2018-09-30T08:27:52.023Z,44.21
2018-09-30T08:30:21.115Z,43.49
2018-09-30T08:32:50.254Z,42.91
2018-09-30T08:35:19.378Z,43.16
2018-09-30T08:37:53.914Z,43.14
2018-09-30T08:40:28.309Z,43.18
2018-09-30T08:42:57.698Z,41.96
2018-09-30T08:45:26.826Z,42.00
2018-09-30T08:47:55.955Z,41.96
2018-09-30T08:50:25.088Z,41.27
2018-09-30T08:52:54.202Z,41.03
2018-09-30T08:55:23.335Z,40.90
2018-09-30T08:57:52.529Z,40.24
2018-09-30T09:00:21.689Z,39.96
2018-09-30T09:02:50.823Z,40.01
2018-09-30T09:05:19.955Z,39.83
2018-09-30T09:07:49.099Z,39.38
2018-09-30T09:10:18.229Z,38.69
2018-09-30T09:12:47.386Z,38.19
2018-09-30T09:15:16.579Z,37.25
2018-09-30T09:17:45.684Z,36.66
2018-09-30T09:20:14.799Z,35.60
2018-09-30T09:22:43.950Z,30.63
2018-09-30T09:25:13.039Z,26.52
2018-09-30T09:27:42.166Z,24.34
2018-09-30T09:30:11.269Z,24.43
2018-09-30T09:32:40.371Z,23.79
2018-09-30T09:35:10.488Z,23.97
2018-09-30T09:37:39.834Z,22.39
2018-09-30T09:40:10.882Z,22.85
2018-09-30T09:42:40.191Z,21.86
2018-09-30T09:45:09.395Z,22.25
2018-09-30T09:47:38.587Z,22.21
2018-09-30T09:50:08.478Z,22.16
2018-09-30T09:52:37.698Z,23.66
2018-09-30T09:55:06.738Z,22.32
2018-09-30T09:57:35.813Z,23.03
2018-09-30T10:00:05.060Z,22.39
2018-09-30T10:02:34.182Z,23.42
2018-09-30T10:05:03.389Z,23.93
2018-09-30T10:07:32.478Z,23.11
2018-09-30T10:10:01.634Z,23.03
2018-09-30T10:12:30.704Z,23.96
2018-09-30T10:14:59.837Z,23.98
2018-09-30T10:17:28.969Z,25.07
2018-09-30T10:19:58.071Z,23.85
2018-09-30T10:22:27.238Z,23.98
2018-09-30T10:24:56.444Z,24.17
2018-09-30T10:27:25.567Z,23.92
2018-09-30T10:29:54.708Z,23.70
2018-09-30T10:32:23.901Z,23.01
2018-09-30T10:34:53.126Z,24.76
2018-09-30T10:37:22.238Z,23.86
2018-09-30T10:39:51.393Z,25.55
2018-09-30T10:42:20.508Z,25.07
2018-09-30T10:44:49.622Z,24.52
2018-09-30T10:47:18.745Z,24.89
2018-09-30T10:49:47.849Z,25.24
2018-09-30T10:52:17.006Z,25.07
2018-09-30T10:54:46.102Z,24.03
2018-09-30T10:57:16.051Z,24.84
2018-09-30T10:59:45.167Z,25.16
2018-09-30T11:02:14.305Z,25.95
2018-09-30T11:04:43.409Z,24.54
2018-09-30T11:07:12.519Z,25.76
2018-09-30T11:09:41.699Z,26.30
2018-09-30T11:12:10.797Z,26.85
2018-09-30T11:14:39.897Z,28.54
2018-09-30T11:17:09.069Z,28.65
2018-09-30T11:19:38.160Z,29.09
2018-09-30T11:22:07.256Z,29.48
2018-09-30T11:24:36.522Z,29.77
2018-09-30T11:27:05.863Z,29.46
2018-09-30T11:29:35.017Z,29.46
2018-09-30T11:32:04.165Z,28.19
2018-09-30T11:34:33.287Z,29.53
2018-09-30T11:37:02.447Z,28.72
2018-09-30T11:39:31.592Z,28.60
2018-09-30T11:42:00.737Z,27.58
2018-09-30T11:44:29.874Z,28.57
2018-09-30T11:46:58.985Z,28.73
2018-09-30T11:49:28.102Z,28.67
2018-09-30T11:51:57.251Z,28.45
2018-09-30T11:54:26.335Z,29.28
2018-09-30T11:56:55.522Z,28.64
2018-09-30T11:59:24.635Z,28.14
2018-09-30T12:01:53.781Z,28.25
2018-09-30T12:04:22.945Z,28.33
2018-09-30T12:06:52.056Z,28.20
2018-09-30T12:09:21.205Z,28.18
2018-09-30T12:11:50.315Z,28.06
2018-09-30T12:14:19.427Z,27.80
2018-09-30T12:16:48.525Z,27.73
2018-09-30T12:19:17.657Z,27.80
2018-09-30T12:21:46.813Z,27.49
2018-09-30T12:24:15.908Z,27.73
2018-09-30T12:26:45.010Z,27.39
2018-09-30T12:29:14.155Z,27.05
2018-09-30T12:31:43.270Z,27.12
2018-09-30T12:34:12.419Z,26.37
2018-09-30T12:36:41.522Z,27.22
2018-09-30T12:39:11.466Z,26.75
2018-09-30T12:41:40.553Z,27.04
2018-09-30T12:44:09.677Z,26.38
2018-09-30T12:46:38.820Z,26.20
2018-09-30T12:49:07.946Z,26.07
2018-09-30T12:51:37.071Z,25.94
2018-09-30T12:54:06.199Z,26.45
2018-09-30T12:56:35.301Z,26.06
2018-09-30T12:59:04.421Z,26.33
2018-09-30T13:01:33.550Z,26.02
2018-09-30T13:04:02.695Z,25.85
2018-09-30T13:06:31.809Z,25.84
2018-09-30T13:09:00.932Z,25.56
2018-09-30T13:11:30.103Z,25.67
2018-09-30T13:13:59.254Z,24.65
2018-09-30T13:16:28.341Z,25.42
2018-09-30T13:18:57.482Z,25.47
2018-09-30T13:21:26.689Z,25.35
2018-09-30T13:23:55.786Z,25.54
2018-09-30T13:26:24.930Z,25.67
2018-09-30T13:28:54.082Z,26.25
2018-09-30T13:31:23.640Z,25.45
2018-09-30T13:33:52.795Z,25.46
2018-09-30T13:36:21.931Z,25.09
2018-09-30T13:38:51.091Z,25.36
2018-09-30T13:41:20.210Z,24.96
2018-09-30T13:43:49.376Z,25.28
2018-09-30T13:46:18.593Z,25.45
2018-09-30T13:48:47.646Z,25.67
2018-09-30T13:51:16.795Z,25.59
2018-09-30T13:53:45.931Z,25.11
2018-09-30T13:56:15.038Z,25.33
2018-09-30T13:58:44.163Z,25.55
2018-09-30T14:01:13.310Z,25.04
2018-09-30T14:03:42.500Z,25.01
2018-09-30T14:06:11.651Z,25.04
2018-09-30T14:08:40.817Z,25.31
2018-09-30T14:11:09.913Z,25.53
2018-09-30T14:13:39.054Z,25.23
2018-09-30T14:16:08.436Z,25.07
2018-09-30T14:18:37.516Z,25.67
2018-09-30T14:21:06.645Z,25.53
2018-09-30T14:23:35.825Z,25.38
2018-09-30T14:26:04.975Z,26.04
2018-09-30T14:28:34.077Z,25.72
2018-09-30T14:31:03.192Z,25.97
2018-09-30T14:33:32.453Z,26.36
2018-09-30T14:36:01.637Z,25.83
2018-09-30T14:38:30.793Z,25.97
2018-09-30T14:40:59.888Z,25.51
2018-09-30T14:43:29.018Z,26.08
2018-09-30T14:45:58.130Z,25.96
2018-09-30T14:48:27.320Z,26.38
2018-09-30T14:50:56.434Z,26.05
2018-09-30T14:53:25.537Z,26.05
2018-09-30T14:55:54.638Z,26.33
2018-09-30T14:58:23.774Z,26.52
2018-09-30T15:00:52.886Z,26.82
2018-09-30T15:03:22.063Z,26.24
2018-09-30T15:05:51.204Z,26.79
2018-09-30T15:08:20.347Z,27.25
2018-09-30T15:10:49.421Z,27.46
2018-09-30T15:13:18.583Z,27.24
2018-09-30T15:15:47.712Z,27.74
2018-09-30T15:18:16.894Z,27.60
2018-09-30T15:20:46.086Z,28.01
2018-09-30T15:23:15.224Z,27.72
2018-09-30T15:25:44.386Z,27.87
2018-09-30T15:28:13.527Z,28.58
2018-09-30T15:30:42.637Z,27.90
2018-09-30T15:33:11.774Z,28.56
2018-09-30T15:35:40.871Z,28.24
2018-09-30T15:38:10.151Z,28.50
2018-09-30T15:40:39.258Z,28.90
2018-09-30T15:43:08.357Z,28.48
2018-09-30T15:45:37.497Z,28.06
2018-09-30T15:48:06.634Z,28.35
2018-09-30T15:50:35.810Z,28.52
2018-09-30T15:53:04.980Z,28.67
2018-09-30T15:55:34.104Z,29.20
2018-09-30T15:58:03.205Z,29.17
2018-09-30T16:00:32.435Z,29.33
2018-09-30T16:03:01.588Z,30.02
2018-09-30T16:05:30.772Z,30.49
2018-09-30T16:07:59.905Z,30.30
2018-09-30T16:10:29.082Z,30.33
2018-09-30T16:12:58.215Z,30.41
2018-09-30T16:15:27.350Z,30.87
2018-09-30T16:17:56.508Z,31.15
2018-09-30T16:20:25.624Z,31.46
2018-09-30T16:22:54.768Z,31.67
2018-09-30T16:25:23.897Z,32.00
2018-09-30T16:27:53.065Z,32.12
2018-09-30T16:30:22.197Z,33.19
2018-09-30T16:32:51.567Z,33.94
2018-09-30T16:35:21.058Z,34.08
2018-09-30T16:37:50.214Z,34.95
2018-09-30T16:40:19.322Z,35.39
2018-09-30T16:42:48.412Z,36.73
2018-09-30T16:45:17.706Z,37.91
2018-09-30T16:47:47.371Z,38.63
2018-09-30T16:50:16.520Z,39.61
2018-09-30T16:52:45.749Z,40.34
2018-09-30T16:55:14.896Z,41.22
2018-09-30T16:57:44.022Z,41.80
2018-09-30T17:00:13.199Z,42.63
2018-09-30T17:02:42.293Z,43.17
2018-09-30T17:05:11.398Z,43.38
2018-09-30T17:07:40.662Z,44.35
2018-09-30T17:10:09.977Z,44.54
2018-09-30T17:12:39.116Z,44.81
2018-09-30T17:15:08.538Z,45.65
2018-09-30T17:17:37.629Z,46.07
2018-09-30T17:20:06.736Z,46.93
2018-09-30T17:22:35.882Z,46.83
2018-09-30T17:25:04.996Z,46.85
2018-09-30T17:27:34.125Z,47.49
2018-09-30T17:30:03.238Z,48.30
2018-09-30T17:32:32.403Z,48.27
2018-09-30T17:35:01.502Z,48.72
2018-09-30T17:37:30.601Z,48.47
2018-09-30T17:39:59.739Z,48.58
2018-09-30T17:42:28.862Z,48.91
2018-09-30T17:44:58.022Z,48.06
2018-09-30T17:47:27.110Z,48.57
2018-09-30T17:49:56.255Z,48.80
2018-09-30T17:52:25.390Z,49.72
2018-09-30T17:54:54.512Z,49.52
2018-09-30T17:57:23.652Z,49.40
2018-09-30T17:59:52.792Z,49.71
2018-09-30T18:02:21.914Z,49.34
2018-09-30T18:04:51.051Z,49.23
2018-09-30T18:07:20.195Z,49.02
2018-09-30T18:09:49.419Z,48.24
2018-09-30T18:12:18.536Z,48.15
2018-09-30T18:14:47.682Z,48.34
2018-09-30T18:17:16.810Z,47.65
2018-09-30T18:19:45.905Z,48.01
2018-09-30T18:22:15.297Z,48.47
2018-09-30T18:24:44.463Z,50.30
2018-09-30T18:27:13.576Z,51.67
2018-09-30T18:29:42.712Z,51.54
2018-09-30T18:32:11.782Z,50.79
2018-09-30T18:34:40.990Z,49.97
2018-09-30T18:37:10.115Z,49.47
2018-09-30T18:39:39.219Z,49.25
2018-09-30T18:42:08.365Z,50.06
2018-09-30T18:44:37.502Z,50.05
2018-09-30T18:47:06.721Z,50.31
2018-09-30T18:49:35.858Z,50.46
2018-09-30T18:52:04.942Z,50.63
2018-09-30T18:54:34.109Z,50.63
2018-09-30T18:57:03.238Z,50.70
2018-09-30T18:59:32.369Z,50.98
2018-09-30T19:02:01.461Z,50.87
2018-09-30T19:04:30.558Z,51.28
2018-09-30T19:06:59.685Z,51.63
2018-09-30T19:09:28.798Z,51.69
2018-09-30T19:11:57.940Z,52.07
2018-09-30T19:14:26.969Z,52.08
2018-09-30T19:16:56.110Z,52.43
2018-09-30T19:19:25.189Z,52.45
2018-09-30T19:21:54.289Z,52.09
2018-09-30T19:24:23.405Z,51.82
2018-09-30T19:26:52.562Z,52.06
2018-09-30T19:29:21.695Z,52.21
2018-09-30T19:31:52.215Z,52.44
2018-09-30T19:34:21.690Z,52.86
2018-09-30T19:36:50.788Z,52.72
2018-09-30T19:39:19.890Z,52.96
2018-09-30T19:41:49.070Z,53.42
2018-09-30T19:44:18.171Z,53.18
2018-09-30T19:46:47.291Z,53.01
2018-09-30T19:49:16.402Z,52.86
2018-09-30T19:51:45.546Z,53.44
2018-09-30T19:54:14.637Z,52.77
2018-09-30T19:56:43.756Z,53.57
2018-09-30T19:59:12.911Z,53.22
2018-09-30T20:01:42.164Z,52.95
2018-09-30T20:04:11.265Z,52.41
2018-09-30T20:06:43.211Z,52.36
2018-09-30T20:09:12.347Z,52.22
2018-09-30T20:11:41.488Z,52.20
2018-09-30T20:14:10.588Z,52.41
2018-09-30T20:16:39.685Z,53.29
2018-09-30T20:19:08.821Z,52.25
2018-09-30T20:21:37.930Z,51.38
2018-09-30T20:24:07.098Z,50.10
2018-09-30T20:26:36.234Z,50.18
2018-09-30T20:29:05.413Z,50.92
2018-09-30T20:31:34.575Z,51.56
2018-09-30T20:34:03.674Z,51.49
2018-09-30T20:36:32.816Z,51.69
2018-09-30T20:39:01.959Z,52.17
2018-09-30T20:41:31.089Z,51.84
2018-09-30T20:44:00.243Z,51.49
2018-09-30T20:46:29.388Z,51.15
2018-09-30T20:48:58.537Z,51.10
2018-09-30T20:51:27.638Z,51.32
2018-09-30T20:53:56.854Z,51.76
2018-09-30T20:56:25.922Z,52.13
2018-09-30T20:58:55.083Z,52.14
2018-09-30T21:01:24.158Z,51.63
2018-09-30T21:03:53.282Z,51.04
2018-09-30T21:06:27.515Z,51.39
2018-09-30T21:08:56.665Z,51.20
2018-09-30T21:11:25.849Z,50.93
2018-09-30T21:13:54.951Z,50.79
2018-09-30T21:16:24.131Z,50.87
2018-09-30T21:18:53.233Z,51.04
2018-09-30T21:21:22.340Z,50.87
2018-09-30T21:23:51.458Z,51.28
2018-09-30T21:26:20.618Z,51.67
2018-09-30T21:28:49.740Z,51.68
2018-09-30T21:31:18.917Z,52.00
2018-09-30T21:33:48.075Z,52.25
2018-09-30T21:36:17.319Z,52.03
2018-09-30T21:38:46.428Z,52.05
2018-09-30T21:41:15.597Z,51.58
2018-09-30T21:43:44.740Z,51.83
2018-09-30T21:46:13.888Z,52.29
2018-09-30T21:48:43.130Z,51.83
2018-09-30T21:51:12.221Z,52.10
2018-09-30T21:53:41.363Z,52.00
2018-09-30T21:56:10.513Z,51.43
2018-09-30T21:58:39.647Z,52.02
2018-09-30T22:01:08.810Z,52.34
2018-09-30T22:03:37.969Z,51.76
2018-09-30T22:06:07.189Z,51.26
2018-09-30T22:08:36.674Z,50.79
2018-09-30T22:11:05.806Z,50.54
2018-09-30T22:13:34.943Z,50.79
2018-09-30T22:16:04.091Z,50.68
2018-09-30T22:18:33.280Z,50.66
2018-09-30T22:21:02.391Z,50.19
2018-09-30T22:23:31.511Z,50.12
2018-09-30T22:26:00.676Z,50.18
2018-09-30T22:28:29.840Z,50.18
2018-09-30T22:30:58.979Z,50.29
2018-09-30T22:33:28.213Z,50.16
2018-09-30T22:35:57.329Z,50.04
2018-09-30T22:38:26.461Z,50.08
2018-09-30T22:40:55.606Z,50.53
2018-09-30T22:43:24.709Z,50.89
2018-09-30T22:45:53.896Z,50.80
2018-09-30T22:48:23.033Z,50.62
2018-09-30T22:50:52.149Z,50.91
2018-09-30T22:53:21.390Z,51.45
2018-09-30T22:55:50.459Z,51.76
2018-09-30T22:58:19.687Z,51.54
2018-09-30T23:00:48.830Z,51.87
2018-09-30T23:03:17.961Z,52.15
2018-09-30T23:05:47.077Z,52.58
2018-09-30T23:08:16.300Z,52.83
2018-09-30T23:10:45.371Z,53.48
2018-09-30T23:13:14.482Z,54.08
2018-09-30T23:15:43.627Z,54.27
2018-09-30T23:18:12.779Z,54.60
2018-09-30T23:20:41.941Z,55.15
2018-09-30T23:23:11.077Z,54.99
2018-09-30T23:25:40.203Z,55.45
2018-09-30T23:28:09.339Z,55.53
2018-09-30T23:30:38.485Z,56.06
2018-09-30T23:33:07.630Z,56.07
2018-09-30T23:35:36.796Z,55.77
2018-09-30T23:38:05.966Z,56.18
2018-09-30T23:40:35.090Z,55.87
2018-09-30T23:43:04.241Z,56.49
2018-09-30T23:45:33.389Z,56.58
2018-09-30T23:48:02.537Z,56.72
2018-09-30T23:50:31.668Z,56.17
2018-09-30T23:53:00.822Z,56.46
2018-09-30T23:55:30.005Z,56.37
2018-09-30T23:58:11.867Z,56.33
